Terminal Aerodrome Forecast
Issued by NWS Charleston, WV

Current Version | Previous Version | Graphics & Text | Print | Product List | Glossary On
Versions: 1 2 3 4 5 6 7 8 9 10 11 12 13 14 15 16 17 18 19 20 21 22 23 24 25 26 27 28
000
FTUS41 KRLX 140100 AAA
TAFEKN
TAF AMD
KEKN 140129Z 1401/1424 32003KT 6SM BR BKN025
      TEMPO 1402/1404 SCT015
     FM140400 00000KT 3SM BR SCT015
      TEMPO 1404/1408 BKN015
     FM140800 00000KT 1SM BR SCT001
     FM140900 00000KT 1/4SM FG VV001
     FM141300 00000KT 3SM BR SCT001
     FM141400 00000KT P6SM SKC
     FM141800 VRB03KT P6SM FEW050=

USA.gov is the U.S. government's official web portal to all federal, state and local government web resources and services.